Time;durP1;ratioP1;P1;durP2;ratioP2;P2;SDS_P1;SDS_P2;PMS_P1;PMS_P2;Temp;Humidity;BMP_temperature;BMP_pressure;BME280_temperature;BME280_humidity;BME280_pressure;Samples;Min_cycle;Max_cycle;Signal;HPM_P1;HPM_P2
2024/01/12 00:02:22;;;;;;;40.90;18.88;;;;;;;;;;4807189;29;20461;-76
2024/01/12 00:04:49;;;;;;;37.92;18.08;;;;;;;;;;4795226;29;20142;-77
2024/01/12 00:07:15;;;;;;;43.58;22.75;;;;;;;;;;4803887;29;20070;-77
2024/01/12 00:09:42;;;;;;;42.22;21.42;;;;;;;;;;4816158;29;20928;-77
2024/01/12 00:12:09;;;;;;;33.53;16.83;;;;;;;;;;4798788;29;20057;-76
2024/01/12 00:14:35;;;;;;;37.67;18.00;;;;;;;;;;4804984;29;20484;-76
2024/01/12 00:17:02;;;;;;;38.30;18.50;;;;;;;;;;4800094;29;20083;-75
2024/01/12 00:19:29;;;;;;;35.05;17.48;;;;;;;;;;4811127;29;20051;-78
2024/01/12 00:21:55;;;;;;;33.92;17.20;;;;;;;;;;4792476;29;20062;-77
2024/01/12 00:24:22;;;;;;;38.97;17.20;;;;;;;;;;4800329;29;20054;-77
2024/01/12 00:26:49;;;;;;;34.63;16.20;;;;;;;;;;4793996;29;20062;-76
2024/01/12 00:29:16;;;;;;;38.17;17.35;;;;;;;;;;4781799;29;20050;-75
2024/01/12 00:31:43;;;;;;;36.63;18.70;;;;;;;;;;4812691;29;20583;-77
2024/01/12 00:34:09;;;;;;;33.13;17.33;;;;;;;;;;4789035;29;20053;-75
2024/01/12 00:36:36;;;;;;;34.38;17.58;;;;;;;;;;4807133;29;20061;-75
2024/01/12 00:39:03;;;;;;;36.90;17.70;;;;;;;;;;4798893;29;20053;-74
2024/01/12 00:41:30;;;;;;;38.78;18.73;;;;;;;;;;4807523;29;20054;-75
2024/01/12 00:43:57;;;;;;;35.30;17.15;;;;;;;;;;4799559;29;20876;-76
2024/01/12 00:46:24;;;;;;;37.00;17.15;;;;;;;;;;4788476;29;20612;-73
2024/01/12 00:48:50;;;;;;;35.90;17.27;;;;;;;;;;4806882;29;20075;-76
2024/01/12 00:51:17;;;;;;;32.47;16.98;;;;;;;;;;4796471;29;20051;-76
2024/01/12 00:53:44;;;;;;;36.63;17.63;;;;;;;;;;4793775;29;20571;-77
2024/01/12 00:56:11;;;;;;;35.38;17.67;;;;;;;;;;4800484;29;20054;-78
2024/01/12 00:58:37;;;;;;;32.60;16.25;;;;;;;;;;4791156;29;20053;-73
2024/01/12 01:01:04;;;;;;;31.42;16.48;;;;;;;;;;4800318;29;20090;-74
2024/01/12 01:03:30;;;;;;;37.17;16.65;;;;;;;;;;4798481;29;20546;-74
2024/01/12 01:05:57;;;;;;;37.45;17.08;;;;;;;;;;4793667;29;20083;-75
2024/01/12 01:08:24;;;;;;;31.15;16.10;;;;;;;;;;4802902;29;20053;-74
2024/01/12 01:20:57;;;;;;;32.58;17.27;;;;;;;;;;4795445;29;20050;-71
2024/01/12 01:23:23;;;;;;;30.60;16.70;;;;;;;;;;4785718;29;20523;-71
2024/01/12 01:25:51;;;;;;;32.67;16.27;;;;;;;;;;4790231;29;20066;-72
2024/01/12 01:28:17;;;;;;;34.55;17.75;;;;;;;;;;4804088;29;20067;-72
2024/01/12 01:30:44;;;;;;;34.38;17.67;;;;;;;;;;4782902;29;20055;-72
2024/01/12 01:33:10;;;;;;;34.90;18.77;;;;;;;;;;4786113;29;20086;-72
2024/01/12 01:35:37;;;;;;;38.97;18.70;;;;;;;;;;4792360;29;20735;-71
2024/01/12 01:38:03;;;;;;;31.45;16.50;;;;;;;;;;4797278;29;20050;-72
2024/01/12 01:40:30;;;;;;;36.47;17.92;;;;;;;;;;4783399;29;20137;-72
2024/01/12 01:43:06;;;;;;;34.17;17.73;;;;;;;;;;4792338;29;20471;-72
2024/01/12 01:45:34;;;;;;;38.28;17.75;;;;;;;;;;4775568;29;20586;-73
2024/01/12 01:48:01;;;;;;;34.97;17.60;;;;;;;;;;4789768;29;20595;-72
2024/01/12 01:50:28;;;;;;;30.45;16.13;;;;;;;;;;4795074;29;20059;-72
2024/01/12 01:52:55;;;;;;;35.25;17.10;;;;;;;;;;4801798;29;20054;-72
2024/01/12 01:55:21;;;;;;;36.15;17.13;;;;;;;;;;4781468;29;20054;-73
2024/01/12 01:57:47;;;;;;;35.28;16.45;;;;;;;;;;4770985;29;20091;-72
2024/01/12 02:00:14;;;;;;;35.72;17.77;;;;;;;;;;4799506;29;20055;-72
2024/01/12 02:02:41;;;;;;;36.85;18.30;;;;;;;;;;4784467;29;20369;-73
2024/01/12 02:05:08;;;;;;;37.03;17.30;;;;;;;;;;4798983;29;20059;-72
2024/01/12 02:07:37;;;;;;;35.58;18.05;;;;;;;;;;4813897;29;20055;-72
2024/01/12 02:10:03;;;;;;;33.50;17.35;;;;;;;;;;4793130;29;20263;-72
2024/01/12 02:12:30;;;;;;;33.55;16.08;;;;;;;;;;4797434;29;20119;-72
2024/01/12 02:14:57;;;;;;;33.38;15.95;;;;;;;;;;4799826;29;20055;-71
2024/01/12 02:17:23;;;;;;;33.67;16.33;;;;;;;;;;4800243;29;20066;-72
2024/01/12 02:19:56;;;;;;;34.47;16.58;;;;;;;;;;4801299;29;20493;-73
2024/01/12 02:22:22;;;;;;;31.02;16.15;;;;;;;;;;4805254;29;20390;-72
2024/01/12 02:24:49;;;;;;;35.00;17.13;;;;;;;;;;4801613;29;20051;-73
2024/01/12 02:27:15;;;;;;;35.33;17.77;;;;;;;;;;4805636;29;20055;-73
2024/01/12 02:29:42;;;;;;;38.65;18.85;;;;;;;;;;4802051;29;20090;-73
2024/01/12 02:32:08;;;;;;;34.67;18.05;;;;;;;;;;4809103;29;20059;-72
2024/01/12 02:34:35;;;;;;;31.30;16.17;;;;;;;;;;4808024;29;20086;-73
2024/01/12 02:37:01;;;;;;;32.85;16.38;;;;;;;;;;4799633;29;20362;-73
2024/01/12 02:39:28;;;;;;;31.67;16.05;;;;;;;;;;4792328;29;20145;-73
2024/01/12 02:41:57;;;;;;;32.47;17.17;;;;;;;;;;4789584;29;20147;-74
2024/01/12 02:44:24;;;;;;;31.23;16.42;;;;;;;;;;4780498;29;20055;-72
2024/01/12 02:46:50;;;;;;;34.58;16.92;;;;;;;;;;4786815;29;20065;-73
2024/01/12 02:49:17;;;;;;;35.40;16.33;;;;;;;;;;4800614;29;20094;-74
2024/01/12 02:51:43;;;;;;;30.73;15.48;;;;;;;;;;4793178;29;20054;-74
2024/01/12 02:54:10;;;;;;;30.60;15.90;;;;;;;;;;4798359;29;20099;-74
2024/01/12 02:56:36;;;;;;;31.80;17.15;;;;;;;;;;4797339;29;20145;-74
2024/01/12 02:59:02;;;;;;;31.48;15.82;;;;;;;;;;4788687;29;20485;-73
2024/01/12 03:01:29;;;;;;;34.38;16.42;;;;;;;;;;4797880;29;20558;-73
2024/01/12 03:03:55;;;;;;;30.42;14.93;;;;;;;;;;4792202;29;20574;-73
2024/01/12 03:06:22;;;;;;;33.97;15.43;;;;;;;;;;4800461;29;20069;-74
2024/01/12 03:08:48;;;;;;;33.97;16.00;;;;;;;;;;4788563;29;20523;-74
2024/01/12 03:11:15;;;;;;;32.38;16.17;;;;;;;;;;4794700;29;20137;-73
2024/01/12 03:13:41;;;;;;;30.20;14.40;;;;;;;;;;4794530;29;20262;-74
2024/01/12 03:16:21;;;;;;;37.88;16.60;;;;;;;;;;4798845;29;20155;-72
2024/01/12 03:18:48;;;;;;;28.23;14.75;;;;;;;;;;4799183;29;20573;-73
2024/01/12 03:21:18;;;;;;;34.57;16.70;;;;;;;;;;4793078;29;20065;-73
2024/01/12 03:23:45;;;;;;;30.58;15.15;;;;;;;;;;4807784;29;20355;-73
2024/01/12 03:26:12;;;;;;;28.63;14.65;;;;;;;;;;4800220;29;20489;-72
2024/01/12 03:28:38;;;;;;;32.72;16.40;;;;;;;;;;4812318;29;20104;-72
2024/01/12 03:31:06;;;;;;;30.35;14.70;;;;;;;;;;4799280;29;20142;-73
2024/01/12 03:33:33;;;;;;;29.42;14.52;;;;;;;;;;4792950;29;20055;-72
2024/01/12 03:35:59;;;;;;;30.17;14.45;;;;;;;;;;4798837;29;20297;-73
2024/01/12 03:38:26;;;;;;;28.90;14.00;;;;;;;;;;4804473;29;20059;-73
2024/01/12 03:40:53;;;;;;;27.92;12.93;;;;;;;;;;4812084;29;20115;-72
2024/01/12 03:43:19;;;;;;;28.92;13.55;;;;;;;;;;4793513;29;20136;-72
2024/01/12 03:45:45;;;;;;;25.33;12.02;;;;;;;;;;4809696;29;20323;-73
2024/01/12 03:48:12;;;;;;;23.63;11.82;;;;;;;;;;4807669;29;20065;-74
2024/01/12 03:50:39;;;;;;;25.42;12.65;;;;;;;;;;4780996;29;20546;-72
2024/01/12 03:53:05;;;;;;;26.65;12.40;;;;;;;;;;4796344;29;20796;-72
2024/01/12 03:55:32;;;;;;;29.92;12.02;;;;;;;;;;4779452;29;20247;-73
2024/01/12 03:57:58;;;;;;;24.30;12.13;;;;;;;;;;4795662;29;20424;-72
2024/01/12 04:00:25;;;;;;;32.08;12.80;;;;;;;;;;4792607;29;20572;-73
2024/01/12 04:02:51;;;;;;;32.67;15.15;;;;;;;;;;4787684;29;20548;-71
2024/01/12 04:05:18;;;;;;;34.47;14.55;;;;;;;;;;4786622;29;20059;-71
2024/01/12 04:07:44;;;;;;;28.58;12.38;;;;;;;;;;4793456;29;20058;-72
2024/01/12 04:10:11;;;;;;;32.10;13.80;;;;;;;;;;4793827;29;20139;-72
2024/01/12 04:12:37;;;;;;;29.75;14.90;;;;;;;;;;4782407;29;20055;-72
2024/01/12 04:15:05;;;;;;;32.75;14.20;;;;;;;;;;4795295;29;20051;-73
2024/01/12 04:17:32;;;;;;;29.27;12.83;;;;;;;;;;4809276;29;20047;-73
2024/01/12 04:19:58;;;;;;;24.65;9.93;;;;;;;;;;4790538;29;20404;-73
2024/01/12 04:22:24;;;;;;;22.63;9.38;;;;;;;;;;4798742;29;20163;-72
2024/01/12 04:24:51;;;;;;;28.83;10.75;;;;;;;;;;4791671;29;20054;-71
2024/01/12 04:27:17;;;;;;;26.70;9.77;;;;;;;;;;4798441;29;20146;-71
2024/01/12 04:29:44;;;;;;;20.60;8.75;;;;;;;;;;4793247;29;20181;-72
2024/01/12 04:32:10;;;;;;;25.63;9.15;;;;;;;;;;4790452;29;20589;-72
2024/01/12 04:34:37;;;;;;;23.50;8.80;;;;;;;;;;4806242;29;20495;-72
2024/01/12 04:37:05;;;;;;;22.25;8.90;;;;;;;;;;4796907;29;20050;-73
2024/01/12 04:39:32;;;;;;;25.63;8.10;;;;;;;;;;4812214;29;20256;-72
2024/01/12 04:41:58;;;;;;;24.98;8.60;;;;;;;;;;4797200;29;20066;-72
2024/01/12 04:44:25;;;;;;;23.50;7.78;;;;;;;;;;4780133;29;20055;-73
2024/01/12 04:46:51;;;;;;;21.98;7.32;;;;;;;;;;4807862;29;20479;-72
2024/01/12 04:49:18;;;;;;;20.83;7.72;;;;;;;;;;4783343;29;20337;-72
2024/01/12 04:51:44;;;;;;;19.63;6.75;;;;;;;;;;4795500;29;20138;-72
2024/01/12 04:54:11;;;;;;;19.02;6.85;;;;;;;;;;4794353;29;20462;-72
2024/01/12 04:56:38;;;;;;;19.58;6.80;;;;;;;;;;4792417;29;20783;-72
2024/01/12 04:59:04;;;;;;;15.38;7.28;;;;;;;;;;4787786;29;20061;-71
2024/01/12 05:01:31;;;;;;;23.70;6.88;;;;;;;;;;4787164;29;20051;-72
2024/01/12 05:03:57;;;;;;;18.95;6.95;;;;;;;;;;4795643;29;20057;-72
2024/01/12 05:06:24;;;;;;;20.17;6.45;;;;;;;;;;4787698;29;20111;-71
2024/01/12 05:08:51;;;;;;;21.48;6.55;;;;;;;;;;4807095;29;20053;-71
2024/01/12 05:11:18;;;;;;;17.90;7.18;;;;;;;;;;4788561;29;20409;-71
2024/01/12 05:13:45;;;;;;;22.35;7.15;;;;;;;;;;4800169;29;20117;-71
2024/01/12 05:16:11;;;;;;;20.27;6.57;;;;;;;;;;4795675;29;20483;-72
2024/01/12 05:18:38;;;;;;;25.50;6.93;;;;;;;;;;4798139;29;20401;-73
2024/01/12 05:21:04;;;;;;;19.17;7.00;;;;;;;;;;4790347;29;20050;-72
2024/01/12 05:23:31;;;;;;;20.50;7.28;;;;;;;;;;4796883;29;20721;-71
2024/01/12 05:25:58;;;;;;;24.75;7.95;;;;;;;;;;4778458;29;20082;-71
2024/01/12 05:28:24;;;;;;;20.02;7.95;;;;;;;;;;4789138;29;20085;-71
2024/01/12 05:30:50;;;;;;;19.15;8.65;;;;;;;;;;4785068;29;20444;-71
2024/01/12 05:33:17;;;;;;;19.30;7.45;;;;;;;;;;4797535;29;20067;-71
2024/01/12 05:35:44;;;;;;;16.73;7.10;;;;;;;;;;4797619;29;20063;-72
2024/01/12 05:38:10;;;;;;;17.90;7.00;;;;;;;;;;4792145;29;20054;-71
2024/01/12 05:40:37;;;;;;;21.08;6.72;;;;;;;;;;4807649;29;20054;-71
2024/01/12 05:43:03;;;;;;;17.25;6.45;;;;;;;;;;4803033;29;20047;-71
2024/01/12 05:45:29;;;;;;;18.75;6.70;;;;;;;;;;4797118;29;20047;-71
2024/01/12 05:47:56;;;;;;;19.13;7.05;;;;;;;;;;4790289;29;20058;-72
2024/01/12 05:50:22;;;;;;;19.08;6.07;;;;;;;;;;4796454;29;20078;-73
2024/01/12 05:52:49;;;;;;;16.45;6.55;;;;;;;;;;4793254;29;20070;-71
2024/01/12 05:55:15;;;;;;;16.60;6.90;;;;;;;;;;4793801;29;20058;-73
2024/01/12 05:57:42;;;;;;;16.25;6.65;;;;;;;;;;4794959;29;20050;-72
2024/01/12 06:00:09;;;;;;;19.77;6.55;;;;;;;;;;4800545;29;20055;-71
2024/01/12 06:02:36;;;;;;;15.05;6.53;;;;;;;;;;4799230;29;20519;-72
2024/01/12 06:05:03;;;;;;;18.63;6.18;;;;;;;;;;4797376;29;20058;-72
2024/01/12 06:07:29;;;;;;;19.45;6.43;;;;;;;;;;4785728;29;20055;-71
2024/01/12 06:09:55;;;;;;;16.35;5.55;;;;;;;;;;4787550;29;20568;-71
2024/01/12 06:12:22;;;;;;;19.65;5.82;;;;;;;;;;4786430;29;20460;-72
2024/01/12 06:14:48;;;;;;;11.40;5.15;;;;;;;;;;4797062;29;20427;-71
2024/01/12 06:17:15;;;;;;;10.50;4.57;;;;;;;;;;4789492;29;20326;-73
2024/01/12 06:19:42;;;;;;;19.67;5.10;;;;;;;;;;4810555;29;20078;-71
2024/01/12 06:22:09;;;;;;;16.27;6.00;;;;;;;;;;4806097;29;20051;-72
2024/01/12 06:24:36;;;;;;;20.75;5.40;;;;;;;;;;4788611;29;20428;-73
2024/01/12 06:27:02;;;;;;;18.73;5.20;;;;;;;;;;4795599;29;20397;-72
2024/01/12 06:29:30;;;;;;;17.77;5.85;;;;;;;;;;4800780;29;20054;-73
2024/01/12 06:31:57;;;;;;;13.20;4.85;;;;;;;;;;4809261;29;20103;-71
2024/01/12 06:34:23;;;;;;;14.95;5.28;;;;;;;;;;4797616;29;20130;-72
2024/01/12 06:36:50;;;;;;;15.00;5.53;;;;;;;;;;4782864;29;20118;-72
2024/01/12 06:39:16;;;;;;;14.35;5.55;;;;;;;;;;4805930;29;20475;-72
2024/01/12 06:41:43;;;;;;;17.38;5.20;;;;;;;;;;4790842;29;20058;-72
2024/01/12 06:44:10;;;;;;;16.08;5.35;;;;;;;;;;4786357;29;20055;-71
2024/01/12 06:46:40;;;;;;;14.95;5.43;;;;;;;;;;4784458;29;20062;-73
2024/01/12 06:49:09;;;;;;;18.40;6.75;;;;;;;;;;4790724;29;20421;-72
2024/01/12 06:51:36;;;;;;;16.15;6.40;;;;;;;;;;4787473;29;20641;-72
2024/01/12 06:54:03;;;;;;;14.50;5.68;;;;;;;;;;4778347;29;20098;-71
2024/01/12 06:56:30;;;;;;;18.83;6.15;;;;;;;;;;4800236;29;20054;-73
2024/01/12 06:58:57;;;;;;;14.68;5.72;;;;;;;;;;4792920;29;20059;-72
2024/01/12 07:01:23;;;;;;;17.70;6.18;;;;;;;;;;4799062;29;20050;-72
2024/01/12 07:03:51;;;;;;;13.48;5.57;;;;;;;;;;4796680;29;20061;-72
2024/01/12 07:06:18;;;;;;;13.35;5.82;;;;;;;;;;4786500;29;20055;-72
2024/01/12 07:09:04;;;;;;;12.93;5.65;;;;;;;;;;4810098;29;20051;-72
2024/01/12 07:11:32;;;;;;;15.65;6.20;;;;;;;;;;4805872;29;20492;-72
2024/01/12 07:13:59;;;;;;;19.10;6.05;;;;;;;;;;4789919;29;20055;-72
2024/01/12 07:16:25;;;;;;;13.30;6.22;;;;;;;;;;4792132;29;20430;-72
2024/01/12 07:18:52;;;;;;;16.58;6.47;;;;;;;;;;4790067;29;20146;-72
2024/01/12 07:21:18;;;;;;;17.98;6.32;;;;;;;;;;4789032;29;20070;-73
2024/01/12 07:23:45;;;;;;;18.48;5.85;;;;;;;;;;4794485;29;20055;-73
2024/01/12 07:26:11;;;;;;;20.83;6.32;;;;;;;;;;4813781;29;20055;-72
2024/01/12 07:28:38;;;;;;;19.65;6.25;;;;;;;;;;4792162;29;20072;-72
2024/01/12 07:31:04;;;;;;;14.00;5.50;;;;;;;;;;4814279;29;20543;-73
2024/01/12 07:33:30;;;;;;;17.70;5.95;;;;;;;;;;4794798;29;20112;-72
2024/01/12 07:35:57;;;;;;;14.25;5.88;;;;;;;;;;4791084;29;20150;-72
2024/01/12 07:38:24;;;;;;;15.73;6.05;;;;;;;;;;4794957;29;20116;-72
2024/01/12 07:40:50;;;;;;;13.50;5.47;;;;;;;;;;4792753;29;20092;-73
2024/01/12 07:43:17;;;;;;;13.88;5.18;;;;;;;;;;4799997;29;20054;-72
2024/01/12 07:45:44;;;;;;;21.70;6.47;;;;;;;;;;4794786;29;20055;-73
2024/01/12 07:48:10;;;;;;;14.93;6.10;;;;;;;;;;4788860;29;20070;-74
2024/01/12 07:50:37;;;;;;;15.90;5.90;;;;;;;;;;4812867;29;20077;-72
2024/01/12 07:53:04;;;;;;;19.88;6.57;;;;;;;;;;4791562;29;20493;-72
2024/01/12 07:55:30;;;;;;;12.65;5.53;;;;;;;;;;4799991;29;20058;-72
2024/01/12 07:57:56;;;;;;;18.35;6.22;;;;;;;;;;4788981;29;20063;-72
2024/01/12 08:00:23;;;;;;;13.52;4.97;;;;;;;;;;4804026;29;20143;-72
2024/01/12 08:02:52;;;;;;;16.60;5.82;;;;;;;;;;4794339;29;20058;-73
2024/01/12 08:05:19;;;;;;;13.98;5.30;;;;;;;;;;4802175;29;20055;-72
2024/01/12 08:07:46;;;;;;;17.42;5.75;;;;;;;;;;4798215;29;20046;-73
2024/01/12 08:10:13;;;;;;;12.15;5.22;;;;;;;;;;4784817;29;20051;-72
2024/01/12 08:12:39;;;;;;;15.38;5.22;;;;;;;;;;4812306;29;20500;-73
2024/01/12 08:15:09;;;;;;;16.15;4.70;;;;;;;;;;4793250;29;20549;-72
2024/01/12 08:17:37;;;;;;;14.52;5.97;;;;;;;;;;4791596;29;20144;-74
2024/01/12 08:20:03;;;;;;;14.93;4.82;;;;;;;;;;4791389;29;20455;-73
2024/01/12 08:22:32;;;;;;;16.92;6.43;;;;;;;;;;4792324;29;20135;-72
2024/01/12 08:24:58;;;;;;;16.90;6.43;;;;;;;;;;4795860;29;20545;-72
2024/01/12 08:27:25;;;;;;;15.20;6.18;;;;;;;;;;4803998;29;20046;-73
2024/01/12 08:29:51;;;;;;;18.65;6.20;;;;;;;;;;4794979;29;20077;-72
2024/01/12 08:32:18;;;;;;;18.88;6.28;;;;;;;;;;4802584;29;20100;-75
2024/01/12 08:34:44;;;;;;;18.60;6.43;;;;;;;;;;4783479;29;20054;-72
2024/01/12 08:37:11;;;;;;;17.35;6.75;;;;;;;;;;4807765;29;20061;-72
2024/01/12 08:39:37;;;;;;;19.70;6.50;;;;;;;;;;4791604;29;20135;-72
2024/01/12 08:42:04;;;;;;;13.88;6.15;;;;;;;;;;4810393;29;20066;-72
2024/01/12 08:44:31;;;;;;;20.95;6.47;;;;;;;;;;4791759;29;20204;-74
2024/01/12 08:46:57;;;;;;;13.48;6.15;;;;;;;;;;4790138;29;20142;-72
2024/01/12 08:49:24;;;;;;;16.90;6.75;;;;;;;;;;4806797;29;20417;-71
2024/01/12 08:51:51;;;;;;;18.58;6.38;;;;;;;;;;4799756;29;20051;-71
2024/01/12 08:54:17;;;;;;;17.35;6.72;;;;;;;;;;4797700;29;20583;-73
2024/01/12 08:56:44;;;;;;;14.43;6.55;;;;;;;;;;4789755;29;20051;-72
2024/01/12 08:59:10;;;;;;;22.75;7.25;;;;;;;;;;4792057;29;20787;-74
2024/01/12 09:01:37;;;;;;;18.65;6.00;;;;;;;;;;4802777;29;20669;-72
2024/01/12 09:04:03;;;;;;;14.10;5.60;;;;;;;;;;4789788;29;20135;-71
2024/01/12 09:06:30;;;;;;;13.52;5.30;;;;;;;;;;4804906;29;20086;-72
2024/01/12 09:08:57;;;;;;;16.98;6.38;;;;;;;;;;4791864;29;20893;-72
2024/01/12 09:11:24;;;;;;;18.58;7.13;;;;;;;;;;4793081;29;20066;-72
2024/01/12 09:13:50;;;;;;;21.92;6.00;;;;;;;;;;4794773;29;20141;-72
2024/01/12 09:16:17;;;;;;;16.52;6.32;;;;;;;;;;4787099;29;20545;-72
2024/01/12 09:18:44;;;;;;;15.02;6.18;;;;;;;;;;4795502;29;20058;-72
2024/01/12 09:21:15;;;;;;;15.68;6.32;;;;;;;;;;4791604;29;20131;-72
2024/01/12 09:23:43;;;;;;;21.08;7.53;;;;;;;;;;4796340;29;20502;-75
2024/01/12 09:26:12;;;;;;;20.23;6.10;;;;;;;;;;4802638;29;20055;-73
2024/01/12 09:28:39;;;;;;;16.65;6.53;;;;;;;;;;4800198;29;20058;-73
2024/01/12 09:31:06;;;;;;;19.05;6.65;;;;;;;;;;4805855;29;20058;-74
2024/01/12 09:33:32;;;;;;;14.65;6.28;;;;;;;;;;4783876;29;20703;-74
2024/01/12 09:35:59;;;;;;;18.50;7.07;;;;;;;;;;4793909;29;20620;-72
2024/01/12 09:38:26;;;;;;;15.63;6.07;;;;;;;;;;4790428;29;20483;-74
2024/01/12 09:40:52;;;;;;;18.00;8.02;;;;;;;;;;4789808;29;20142;-74
2024/01/12 09:43:21;;;;;;;21.63;8.52;;;;;;;;;;4796359;29;20116;-73
2024/01/12 09:45:49;;;;;;;16.80;7.68;;;;;;;;;;4786949;29;20055;-73
2024/01/12 09:48:16;;;;;;;14.27;7.43;;;;;;;;;;4798242;29;20145;-74
2024/01/12 09:50:43;;;;;;;16.13;7.18;;;;;;;;;;4787134;29;20059;-73
2024/01/12 09:53:10;;;;;;;23.02;7.88;;;;;;;;;;4793701;29;20190;-73
2024/01/12 09:55:36;;;;;;;23.92;9.40;;;;;;;;;;4794246;29;20904;-74
2024/01/12 09:58:04;;;;;;;24.20;8.57;;;;;;;;;;4788877;29;20062;-74
2024/01/12 10:00:32;;;;;;;21.02;8.00;;;;;;;;;;4797754;29;20043;-73
2024/01/12 10:02:59;;;;;;;18.27;8.13;;;;;;;;;;4790520;29;20054;-73
2024/01/12 10:05:25;;;;;;;18.48;8.18;;;;;;;;;;4796538;29;20058;-74
2024/01/12 10:07:52;;;;;;;20.45;8.32;;;;;;;;;;4787332;29;20055;-74
2024/01/12 10:10:19;;;;;;;18.50;7.78;;;;;;;;;;4800743;29;20054;-74
2024/01/12 10:12:48;;;;;;;19.17;7.88;;;;;;;;;;4796117;29;20078;-75
2024/01/12 10:15:15;;;;;;;23.17;8.43;;;;;;;;;;4787482;29;20047;-74
2024/01/12 10:17:42;;;;;;;15.40;6.47;;;;;;;;;;4794737;29;20055;-74
2024/01/12 10:20:09;;;;;;;22.60;8.02;;;;;;;;;;4787872;29;20062;-73
2024/01/12 10:22:36;;;;;;;18.15;7.65;;;;;;;;;;4782584;29;20055;-73
2024/01/12 10:25:03;;;;;;;15.77;7.82;;;;;;;;;;4787956;29;20062;-73
2024/01/12 10:27:30;;;;;;;28.13;9.32;;;;;;;;;;4807740;29;20083;-74
2024/01/12 10:29:56;;;;;;;25.55;8.07;;;;;;;;;;4801810;29;20135;-74
2024/01/12 10:32:23;;;;;;;20.67;8.48;;;;;;;;;;4811979;29;20074;-74
2024/01/12 10:34:51;;;;;;;21.80;8.02;;;;;;;;;;4795860;29;20059;-74
2024/01/12 10:37:17;;;;;;;16.48;7.82;;;;;;;;;;4809993;29;20062;-74
2024/01/12 10:39:45;;;;;;;16.45;7.38;;;;;;;;;;4789573;29;20051;-74
2024/01/12 10:42:11;;;;;;;22.05;7.65;;;;;;;;;;4808435;29;20059;-74
2024/01/12 10:44:39;;;;;;;22.23;8.45;;;;;;;;;;4798200;29;20077;-75
2024/01/12 10:47:06;;;;;;;23.58;8.77;;;;;;;;;;4804508;29;20715;-74
2024/01/12 10:49:40;;;;;;;24.90;8.15;;;;;;;;;;4795604;29;20485;-75
2024/01/12 10:52:08;;;;;;;21.67;7.53;;;;;;;;;;4795902;29;20390;-75
2024/01/12 10:54:41;;;;;;;17.20;7.72;;;;;;;;;;4804911;29;20051;-75
2024/01/12 10:57:08;;;;;;;18.77;7.20;;;;;;;;;;4797468;29;20094;-74
2024/01/12 10:59:35;;;;;;;15.55;7.68;;;;;;;;;;4806282;29;20058;-74
2024/01/12 11:02:02;;;;;;;17.95;7.95;;;;;;;;;;4790280;29;20552;-73
2024/01/12 11:04:29;;;;;;;18.05;7.13;;;;;;;;;;4794519;29;20065;-73
2024/01/12 11:06:58;;;;;;;14.68;7.00;;;;;;;;;;4793964;29;20062;-74
2024/01/12 11:09:25;;;;;;;16.52;7.32;;;;;;;;;;4785505;29;20413;-75
2024/01/12 11:12:06;;;;;;;18.38;7.57;;;;;;;;;;4787756;29;20067;-74
2024/01/12 11:14:32;;;;;;;12.68;7.70;;;;;;;;;;4791334;29;20055;-75
2024/01/12 11:16:59;;;;;;;23.25;8.32;;;;;;;;;;4802073;29;20051;-73
2024/01/12 11:19:27;;;;;;;23.38;9.25;;;;;;;;;;4789949;29;20061;-74
2024/01/12 11:22:07;;;;;;;19.73;8.40;;;;;;;;;;4796676;29;20521;-74
2024/01/12 11:24:35;;;;;;;24.95;8.13;;;;;;;;;;4804774;29;20142;-74
2024/01/12 11:27:02;;;;;;;17.63;7.63;;;;;;;;;;4806761;29;20165;-73
2024/01/12 11:29:30;;;;;;;16.80;7.20;;;;;;;;;;4794591;29;20451;-73
2024/01/12 11:32:00;;;;;;;21.52;7.68;;;;;;;;;;4795849;29;20133;-73
2024/01/12 11:34:29;;;;;;;17.83;6.88;;;;;;;;;;4799599;29;20388;-74
2024/01/12 11:37:00;;;;;;;19.23;7.28;;;;;;;;;;4791754;29;20050;-73
2024/01/12 11:39:31;;;;;;;21.05;7.70;;;;;;;;;;4799425;29;20461;-70
2024/01/12 11:41:58;;;;;;;20.48;7.40;;;;;;;;;;4794314;29;20051;-74
2024/01/12 11:44:25;;;;;;;17.13;7.55;;;;;;;;;;4784490;29;20469;-76
2024/01/12 11:46:52;;;;;;;24.50;7.43;;;;;;;;;;4800779;29;20333;-76
2024/01/12 11:49:19;;;;;;;15.38;7.07;;;;;;;;;;4793557;29;20055;-76
2024/01/12 11:51:46;;;;;;;16.92;7.05;;;;;;;;;;4803512;29;20102;-76
2024/01/12 11:54:13;;;;;;;19.08;8.00;;;;;;;;;;4818213;29;20373;-76
2024/01/12 11:56:39;;;;;;;18.55;6.70;;;;;;;;;;4792206;29;20051;-76
2024/01/12 11:59:06;;;;;;;20.83;6.88;;;;;;;;;;4793223;29;20490;-76
2024/01/12 12:01:32;;;;;;;14.73;6.53;;;;;;;;;;4795308;29;20091;-76
2024/01/12 12:03:59;;;;;;;12.35;6.35;;;;;;;;;;4814834;29;20051;-75
2024/01/12 12:06:26;;;;;;;15.73;6.43;;;;;;;;;;4792136;29;20057;-75
2024/01/12 12:08:55;;;;;;;24.15;7.68;;;;;;;;;;4801006;29;20051;-74
2024/01/12 12:11:22;;;;;;;12.13;6.53;;;;;;;;;;4792163;29;20043;-73
2024/01/12 12:13:50;;;;;;;19.83;6.68;;;;;;;;;;4786497;29;20067;-75
2024/01/12 12:16:17;;;;;;;;;;;;;;;;;;4816005;29;20146;-76
2024/01/12 12:18:44;;;;;;;17.60;7.20;;;;;;;;;;4797923;29;20622;-74
2024/01/12 12:21:11;;;;;;;19.65;6.90;;;;;;;;;;4805008;29;20066;-74
2024/01/12 12:23:41;;;;;;;19.60;7.00;;;;;;;;;;4811737;29;20725;-73
2024/01/12 12:26:10;;;;;;;21.30;6.95;;;;;;;;;;4787992;29;20672;-72
2024/01/12 12:28:37;;;;;;;14.43;6.78;;;;;;;;;;4797678;29;20147;-70
2024/01/12 12:31:06;;;;;;;18.38;6.65;;;;;;;;;;4797383;29;20143;-71
2024/01/12 12:33:33;;;;;;;16.27;5.95;;;;;;;;;;4799268;29;20599;-72
2024/01/12 12:36:09;;;;;;;20.40;6.75;;;;;;;;;;4794310;29;20047;-75
2024/01/12 12:38:37;;;;;;;19.15;7.10;;;;;;;;;;4794793;29;20090;-73
2024/01/12 12:41:06;;;;;;;13.13;6.18;;;;;;;;;;4791641;29;20055;-71
2024/01/12 12:43:32;;;;;;;;;;;;;;;;;;4782429;29;20127;-72
2024/01/12 12:45:59;;;;;;;14.43;6.93;;;;;;;;;;4795401;29;19986;-73
2024/01/12 12:48:28;;;;;;;18.63;6.63;;;;;;;;;;4785204;29;20074;-73
2024/01/12 12:50:55;;;;;;;16.48;6.78;;;;;;;;;;4796441;29;20373;-74
2024/01/12 12:53:22;;;;;;;17.23;7.80;;;;;;;;;;4793830;29;20486;-73
2024/01/12 12:55:49;;;;;;;16.05;6.50;;;;;;;;;;4789371;29;20062;-73
2024/01/12 12:58:16;;;;;;;22.58;7.65;;;;;;;;;;4809709;29;20089;-73
2024/01/12 13:00:42;;;;;;;15.25;6.28;;;;;;;;;;4789112;29;20066;-75
2024/01/12 13:03:09;;;;;;;15.00;5.38;;;;;;;;;;4813878;29;20096;-75
2024/01/12 13:05:37;;;;;;;13.63;5.68;;;;;;;;;;4792683;29;20073;-74
2024/01/12 13:08:04;;;;;;;;;;;;;;;;;;4797483;29;20069;-74
2024/01/12 13:10:30;;;;;;;21.15;5.85;;;;;;;;;;4808846;29;19936;-74
2024/01/12 13:12:58;;;;;;;14.05;6.93;;;;;;;;;;4788559;29;20103;-73
2024/01/12 13:15:24;;;;;;;15.30;6.25;;;;;;;;;;4796665;29;20055;-73
2024/01/12 13:17:50;;;;;;;17.10;5.80;;;;;;;;;;4792244;29;20466;-74
2024/01/12 13:20:18;;;;;;;15.90;6.50;;;;;;;;;;4803333;29;20051;-74
2024/01/12 13:22:44;;;;;;;14.77;5.72;;;;;;;;;;4793016;29;20047;-74
2024/01/12 13:25:11;;;;;;;16.92;5.38;;;;;;;;;;4788021;29;20062;-74
2024/01/12 13:27:38;;;;;;;27.33;6.57;;;;;;;;;;4805658;29;20066;-73
2024/01/12 13:30:04;;;;;;;16.42;5.93;;;;;;;;;;4786446;29;20115;-73
2024/01/12 13:32:31;;;;;;;17.77;6.32;;;;;;;;;;4792793;29;20568;-73
2024/01/12 13:34:58;;;;;;;19.30;6.50;;;;;;;;;;4785433;29;20055;-75
2024/01/12 13:37:25;;;;;;;13.10;5.93;;;;;;;;;;4797605;29;20057;-74
2024/01/12 13:39:51;;;;;;;19.63;6.22;;;;;;;;;;4797195;29;20058;-74
2024/01/12 13:42:18;;;;;;;20.38;6.13;;;;;;;;;;4805804;29;20082;-73
2024/01/12 13:44:45;;;;;;;16.25;5.78;;;;;;;;;;4798561;29;20046;-73
2024/01/12 13:47:12;;;;;;;13.07;5.88;;;;;;;;;;4805681;29;20055;-73
2024/01/12 13:49:38;;;;;;;11.52;5.10;;;;;;;;;;4793020;29;20055;-71
2024/01/12 13:52:05;;;;;;;15.93;5.82;;;;;;;;;;4791947;29;20127;-70
2024/01/12 13:54:31;;;;;;;13.30;5.57;;;;;;;;;;4776977;29;20054;-70
2024/01/12 13:57:01;;;;;;;15.13;4.75;;;;;;;;;;4794515;29;20094;-71
2024/01/12 13:59:27;;;;;;;11.45;5.40;;;;;;;;;;4787137;29;20054;-73
2024/01/12 14:01:54;;;;;;;20.58;5.40;;;;;;;;;;4796469;29;20114;-73
2024/01/12 14:04:20;;;;;;;15.90;5.55;;;;;;;;;;4800075;29;20054;-71
2024/01/12 14:06:47;;;;;;;22.10;6.18;;;;;;;;;;4786449;29;20046;-71
2024/01/12 14:09:15;;;;;;;15.88;5.82;;;;;;;;;;4795894;29;20107;-71
2024/01/12 14:11:42;;;;;;;16.63;5.83;;;;;;;;;;4783753;29;20058;-73
2024/01/12 14:14:09;;;;;;;13.93;5.32;;;;;;;;;;4795232;29;20059;-72
2024/01/12 14:16:36;;;;;;;14.40;5.65;;;;;;;;;;4789117;29;20055;-74
2024/01/12 14:19:03;;;;;;;17.50;5.50;;;;;;;;;;4798090;29;20149;-76
2024/01/12 14:21:31;;;;;;;16.92;6.03;;;;;;;;;;4787471;29;20485;-76
2024/01/12 14:23:58;;;;;;;15.33;5.17;;;;;;;;;;4789795;29;20446;-75
2024/01/12 14:26:26;;;;;;;20.85;5.65;;;;;;;;;;4812008;29;20336;-75
2024/01/12 14:28:52;;;;;;;13.73;5.18;;;;;;;;;;4786961;29;20161;-75
2024/01/12 14:31:19;;;;;;;20.08;5.35;;;;;;;;;;4801420;29;20079;-77
2024/01/12 14:33:45;;;;;;;16.05;5.35;;;;;;;;;;4796037;29;20050;-76
2024/01/12 14:36:13;;;;;;;19.63;5.43;;;;;;;;;;4790353;29;20487;-76